Aviation Digital Data Service (ADDS)

Output produced by METARs form (0651 UTC 28 February 2015)
found at http://aviationweather.gov/adds/metars/
 
KBUF 280520Z 2806/0106 23008KT P6SM SCT250 
     FM281600 24012G18KT P6SM SCT250 
     FM282200 24008KT P6SM FEW250 
     FM010200 17004KT P6SM FEW250